Mega Smeralda — ICIU — position and weather

sailwx.info

Track history (hours):
 
Tides and Currents Weather Stations Pressure Air Temp Water Temp Dewpoint Dewpoint Depression Visibility Wind Speed Wind Dir Waves Ship Positions

Mega Smeralda

Last reported at 2014-Oct-26 04:33 UTC. Time now 2014-Oct-26 06:04 UTC.
Position N 42°56' E 006°29'.

Length 171 m; draft 6.3 m.

Type: Passenger vessel. MMSI: 247228600.

Date/timePositionNaut miles runAvg speedWind from/ knotsBaromVisibWave heightAir tempDewpointWater temp
2014-Oct-26 04:33N 42°56' E 006°29'1313.0
2014-Oct-26 03:33N 42°57' E 006°47'1312.7
2014-Oct-26 02:33N 42°57' E 007°04'1212.5
2014-Oct-26 01:33N 42°58' E 007°21'7915.7
2014-Oct-25 20:31N 43°03' E 009°09'1515.2
2014-Oct-25 19:30N 43°01' E 009°30'15 3.5
2014-Oct-25 15:17N 42°53' E 009°47'1217.0
2014-Oct-25 14:33N 43°02' E 009°59'1817.6
2014-Oct-25 13:34N 43°19' E 010°07'1514.9
2014-Oct-25 12:33N 43°32' E 010°16'1 1.4
2014-Oct-25 11:33N 43°33' E 010°18'3 3.0
2014-Oct-25 10:33N 43°31' E 010°15'1615.7
2014-Oct-25 09:33N 43°20' E 010°00'1715.3
2014-Oct-25 08:28N 43°08' E 009°44'20 3.9
2014-Oct-25 03:19N 43°03' E 009°17'5818.9
2014-Oct-25 00:15N 43°01' E 007°58'1318.6
2014-Oct-24 23:32N 42°60' E 007°40'3819.3
2014-Oct-24 21:33N 42°58' E 006°48'1918.5
2014-Oct-24 20:31N 42°57' E 006°22'1714.9
2014-Oct-24 19:21N 43°03' E 005°59'5 2.3
2014-Oct-24 17:07N 43°07' E 005°56'0 0.0
2014-Oct-24 16:28N 43°07' E 005°56'6 5.7
2014-Oct-24 15:29N 43°02' E 005°60'1616.9
2014-Oct-24 14:33N 42°52' E 006°16'1716.7
2014-Oct-24 13:34N 42°44' E 006°36'1717.5
2014-Oct-24 12:33N 42°35' E 006°56'1717.3
2014-Oct-24 11:33N 42°26' E 007°16'5416.7
2014-Oct-24 08:21N 41°56' E 008°17'126 7.8
2014-Oct-23 16:12N 43°07' E 005°56'0 0.0
2014-Oct-23 15:33N 43°07' E 005°56'0 0.0
2014-Oct-23 14:33N 43°07' E 005°56'0 0.0
2014-Oct-23 13:33N 43°07' E 005°56'0 0.0
2014-Oct-23 12:33N 43°07' E 005°56'0 0.0
2014-Oct-23 11:33N 43°07' E 005°56'0 0.0
2014-Oct-23 10:33N 43°07' E 005°56'0 0.0
2014-Oct-23 09:33N 43°07' E 005°56'0 0.0
2014-Oct-23 08:33N 43°07' E 005°56'0 0.0
2014-Oct-23 07:33N 43°07' E 005°56'8 8.0
2014-Oct-23 06:32N 43°01' E 006°03'2518.0
2014-Oct-23 05:07N 42°47' E 006°32'1017.5
2014-Oct-23 04:33N 42°44' E 006°45'2017.4
2014-Oct-23 03:25N 42°36' E 007°10'46 1.5
2014-Oct-21 20:33N 42°52' E 006°12'1615.7
2014-Oct-21 19:34N 43°04' E 005°58'3 3.2
2014-Oct-21 18:34N 43°07' E 005°56'0 0.0
2014-Oct-21 17:33N 43°07' E 005°56'0 0.0
2014-Oct-21 16:33N 43°07' E 005°56'0 0.0
2014-Oct-21 15:33N 43°07' E 005°56'0 0.0
2014-Oct-21 14:33N 43°07' E 005°56'0 0.0
2014-Oct-21 09:23N 43°07' E 005°56'0 0.0
2014-Oct-21 08:26N 43°07' E 005°56'0 0.0
2014-Oct-21 07:33N 43°07' E 005°56'0 0.0
2014-Oct-21 06:33N 43°07' E 005°56'0 0.0
2014-Oct-21 05:34N 43°07' E 005°56'3 2.8
2014-Oct-21 04:33N 43°05' E 005°58'1716.4
2014-Oct-21 03:30N 42°56' E 006°19'1617.5
2014-Oct-21 02:33N 42°56' E 006°41'1717.1
2014-Oct-21 01:33N 42°57' E 007°05'9016.8
2014-Oct-20 20:14N 43°03' E 009°07'1216.9
2014-Oct-20 19:33N 43°03' E 009°23'102 4.8
2014-Oct-19 22:22N 42°58' E 007°04'1417.2
2014-Oct-19 21:33N 42°57' E 006°45'1716.5
2014-Oct-19 20:33N 42°56' E 006°23'1615.8
2014-Oct-19 19:33N 42°60' E 006°02'8 8.3
2014-Oct-19 18:33N 43°07' E 005°56'0 0.0
2014-Oct-19 17:33N 43°07' E 005°56'0 0.0
2014-Oct-19 16:33N 43°07' E 005°56'0 0.0
2014-Oct-19 15:33N 43°07' E 005°56'0 0.0
2014-Oct-19 14:34N 43°07' E 005°56'0 0.0
2014-Oct-19 13:33N 43°07' E 005°56'0 0.0
2014-Oct-19 12:33N 43°07' E 005°56'0 0.0
2014-Oct-19 11:33N 43°07' E 005°56'0 0.0
2014-Oct-19 10:33N 43°07' E 005°56'0 0.0
2014-Oct-19 09:33N 43°07' E 005°56'0 0.0
2014-Oct-19 08:33N 43°07' E 005°56'0 0.0
2014-Oct-19 07:33N 43°07' E 005°56'0 0.0
2014-Oct-19 06:33N 43°07' E 005°56'0 0.1
2014-Oct-19 05:33N 43°07' E 005°56'1414.3
2014-Oct-19 04:33N 42°56' E 006°09'1717.3
2014-Oct-19 03:34N 42°56' E 006°33'1616.1
2014-Oct-19 02:33N 42°57' E 006°54'1616.0
2014-Oct-19 01:33N 42°58' E 007°16'3115.7
2014-Oct-18 23:34N 42°59' E 007°59'1615.7
2014-Oct-18 22:33N 43°01' E 008°21'1615.8
2014-Oct-18 21:33N 43°02' E 008°42'1615.8
2014-Oct-18 20:33N 43°03' E 009°04'1615.6
2014-Oct-18 19:33N 43°03' E 009°25'22 6.7
2014-Oct-18 16:21N 42°42' E 009°27'1417.1
2014-Oct-18 15:33N 42°50' E 009°43'1918.8
2014-Oct-18 14:34N 43°03' E 010°00'1818.2
2014-Oct-18 13:34N 43°21' E 010°07'1414.1
2014-Oct-18 12:33N 43°33' E 010°17'1 0.6
2014-Oct-18 11:33N 43°33' E 010°18'0 0.4
2014-Oct-18 10:34N 43°33' E 010°17'1312.6
2014-Oct-18 09:34N 43°24' E 010°05'1615.9
2014-Oct-18 08:33N 43°13' E 009°50'1615.7
2014-Oct-18 07:34N 42°60' E 009°38'12 4.0
2014-Oct-18 04:27N 42°48' E 009°31'1616.4
2014-Oct-18 03:27N 43°03' E 009°21'7418.9
2014-Oct-17 23:32N 42°60' E 007°40'2219.0
2014-Oct-17 22:23N 42°58' E 007°10'1618.8
2014-Oct-17 21:34N 42°56' E 006°49'1818.0
2014-Oct-17 20:33N 42°55' E 006°25'1716.9
2014-Oct-17 19:33N 42°59' E 006°02'9 9.0
2014-Oct-17 18:33N 43°07' E 005°56'0 0.0
2014-Oct-17 17:33N 43°07' E 005°56'0 0.0
2014-Oct-17 16:33N 43°07' E 005°56'0 0.0
2014-Oct-17 15:33N 43°07' E 005°56'0 0.0
2014-Oct-17 14:33N 43°07' E 005°56'0 0.0
2014-Oct-17 13:33N 43°07' E 005°56'0 0.0
2014-Oct-17 12:33N 43°07' E 005°56'0 0.0
2014-Oct-17 10:11N 43°07' E 005°56'0 0.0
2014-Oct-17 07:33N 43°07' E 005°56'0 0.0
2014-Oct-17 06:33N 43°07' E 005°56'0 0.0
2014-Oct-17 05:33N 43°07' E 005°56'5 5.2
2014-Oct-17 04:33N 43°03' E 005°59'1412.9
2014-Oct-17 03:27N 42°53' E 006°14'1413.4
2014-Oct-17 02:25N 42°46' E 006°30'1212.9
2014-Oct-17 01:31N 42°40' E 006°44'  
Track history (hours):
 
Tides and Currents Weather Stations Pressure Air Temp Water Temp Dewpoint Dewpoint Depression Visibility Wind Speed Wind Dir Waves Ship Positions

Mega Smeralda

Last reported at 2014-Oct-26 04:33 UTC. Time now 2014-Oct-26 06:04 UTC.
Position N 42°56' E 006°29'.

Length 171 m; draft 6.3 m.

Type: Passenger vessel. MMSI: 247228600.

Date/timePositionNaut miles runAvg speedWind from/ knotsBaromVisibWave heightAir tempDewpointWater temp
2014-Oct-26 04:33N 42°56' E 006°29'1313.0
2014-Oct-26 03:33N 42°57' E 006°47'1312.7
2014-Oct-26 02:33N 42°57' E 007°04'1212.5
2014-Oct-26 01:33N 42°58' E 007°21'7915.7
2014-Oct-25 20:31N 43°03' E 009°09'1515.2
2014-Oct-25 19:30N 43°01' E 009°30'15 3.5
2014-Oct-25 15:17N 42°53' E 009°47'1217.0
2014-Oct-25 14:33N 43°02' E 009°59'1817.6
2014-Oct-25 13:34N 43°19' E 010°07'1514.9
2014-Oct-25 12:33N 43°32' E 010°16'1 1.4
2014-Oct-25 11:33N 43°33' E 010°18'3 3.0
2014-Oct-25 10:33N 43°31' E 010°15'1615.7
2014-Oct-25 09:33N 43°20' E 010°00'1715.3
2014-Oct-25 08:28N 43°08' E 009°44'20 3.9
2014-Oct-25 03:19N 43°03' E 009°17'5818.9
2014-Oct-25 00:15N 43°01' E 007°58'1318.6
2014-Oct-24 23:32N 42°60' E 007°40'3819.3
2014-Oct-24 21:33N 42°58' E 006°48'1918.5
2014-Oct-24 20:31N 42°57' E 006°22'1714.9
2014-Oct-24 19:21N 43°03' E 005°59'5 2.3
2014-Oct-24 17:07N 43°07' E 005°56'0 0.0
2014-Oct-24 16:28N 43°07' E 005°56'6 5.7
2014-Oct-24 15:29N 43°02' E 005°60'1616.9
2014-Oct-24 14:33N 42°52' E 006°16'1716.7
2014-Oct-24 13:34N 42°44' E 006°36'1717.5
2014-Oct-24 12:33N 42°35' E 006°56'1717.3
2014-Oct-24 11:33N 42°26' E 007°16'5416.7
2014-Oct-24 08:21N 41°56' E 008°17'126 7.8
2014-Oct-23 16:12N 43°07' E 005°56'0 0.0
2014-Oct-23 15:33N 43°07' E 005°56'0 0.0
2014-Oct-23 14:33N 43°07' E 005°56'0 0.0
2014-Oct-23 13:33N 43°07' E 005°56'0 0.0
2014-Oct-23 12:33N 43°07' E 005°56'0 0.0
2014-Oct-23 11:33N 43°07' E 005°56'0 0.0
2014-Oct-23 10:33N 43°07' E 005°56'0 0.0
2014-Oct-23 09:33N 43°07' E 005°56'0 0.0
2014-Oct-23 08:33N 43°07' E 005°56'0 0.0
2014-Oct-23 07:33N 43°07' E 005°56'8 8.0
2014-Oct-23 06:32N 43°01' E 006°03'2518.0
2014-Oct-23 05:07N 42°47' E 006°32'1017.5
2014-Oct-23 04:33N 42°44' E 006°45'2017.4
2014-Oct-23 03:25N 42°36' E 007°10'46 1.5
2014-Oct-21 20:33N 42°52' E 006°12'1615.7
2014-Oct-21 19:34N 43°04' E 005°58'3 3.2
2014-Oct-21 18:34N 43°07' E 005°56'0 0.0
2014-Oct-21 17:33N 43°07' E 005°56'0 0.0
2014-Oct-21 16:33N 43°07' E 005°56'0 0.0
2014-Oct-21 15:33N 43°07' E 005°56'0 0.0
2014-Oct-21 14:33N 43°07' E 005°56'0 0.0
2014-Oct-21 09:23N 43°07' E 005°56'0 0.0
2014-Oct-21 08:26N 43°07' E 005°56'0 0.0
2014-Oct-21 07:33N 43°07' E 005°56'0 0.0
2014-Oct-21 06:33N 43°07' E 005°56'0 0.0
2014-Oct-21 05:34N 43°07' E 005°56'3 2.8
2014-Oct-21 04:33N 43°05' E 005°58'1716.4
2014-Oct-21 03:30N 42°56' E 006°19'1617.5
2014-Oct-21 02:33N 42°56' E 006°41'1717.1
2014-Oct-21 01:33N 42°57' E 007°05'9016.8
2014-Oct-20 20:14N 43°03' E 009°07'1216.9
2014-Oct-20 19:33N 43°03' E 009°23'102 4.8
2014-Oct-19 22:22N 42°58' E 007°04'1417.2
2014-Oct-19 21:33N 42°57' E 006°45'1716.5
2014-Oct-19 20:33N 42°56' E 006°23'1615.8
2014-Oct-19 19:33N 42°60' E 006°02'8 8.3
2014-Oct-19 18:33N 43°07' E 005°56'0 0.0
2014-Oct-19 17:33N 43°07' E 005°56'0 0.0
2014-Oct-19 16:33N 43°07' E 005°56'0 0.0
2014-Oct-19 15:33N 43°07' E 005°56'0 0.0
2014-Oct-19 14:34N 43°07' E 005°56'0 0.0
2014-Oct-19 13:33N 43°07' E 005°56'0 0.0
2014-Oct-19 12:33N 43°07' E 005°56'0 0.0
2014-Oct-19 11:33N 43°07' E 005°56'0 0.0
2014-Oct-19 10:33N 43°07' E 005°56'0 0.0
2014-Oct-19 09:33N 43°07' E 005°56'0 0.0
2014-Oct-19 08:33N 43°07' E 005°56'0 0.0
2014-Oct-19 07:33N 43°07' E 005°56'0 0.0
2014-Oct-19 06:33N 43°07' E 005°56'0 0.1
2014-Oct-19 05:33N 43°07' E 005°56'1414.3
2014-Oct-19 04:33N 42°56' E 006°09'1717.3
2014-Oct-19 03:34N 42°56' E 006°33'1616.1
2014-Oct-19 02:33N 42°57' E 006°54'1616.0
2014-Oct-19 01:33N 42°58' E 007°16'3115.7
2014-Oct-18 23:34N 42°59' E 007°59'1615.7
2014-Oct-18 22:33N 43°01' E 008°21'1615.8
2014-Oct-18 21:33N 43°02' E 008°42'1615.8
2014-Oct-18 20:33N 43°03' E 009°04'1615.6
2014-Oct-18 19:33N 43°03' E 009°25'22 6.7
2014-Oct-18 16:21N 42°42' E 009°27'1417.1
2014-Oct-18 15:33N 42°50' E 009°43'1918.8
2014-Oct-18 14:34N 43°03' E 010°00'1818.2
2014-Oct-18 13:34N 43°21' E 010°07'1414.1
2014-Oct-18 12:33N 43°33' E 010°17'1 0.6
2014-Oct-18 11:33N 43°33' E 010°18'0 0.4
2014-Oct-18 10:34N 43°33' E 010°17'1312.6
2014-Oct-18 09:34N 43°24' E 010°05'1615.9
2014-Oct-18 08:33N 43°13' E 009°50'1615.7
2014-Oct-18 07:34N 42°60' E 009°38'12 4.0
2014-Oct-18 04:27N 42°48' E 009°31'1616.4
2014-Oct-18 03:27N 43°03' E 009°21'7418.9
2014-Oct-17 23:32N 42°60' E 007°40'2219.0
2014-Oct-17 22:23N 42°58' E 007°10'1618.8
2014-Oct-17 21:34N 42°56' E 006°49'1818.0
2014-Oct-17 20:33N 42°55' E 006°25'1716.9
2014-Oct-17 19:33N 42°59' E 006°02'9 9.0
2014-Oct-17 18:33N 43°07' E 005°56'0 0.0
2014-Oct-17 17:33N 43°07' E 005°56'0 0.0
2014-Oct-17 16:33N 43°07' E 005°56'0 0.0
2014-Oct-17 15:33N 43°07' E 005°56'0 0.0
2014-Oct-17 14:33N 43°07' E 005°56'0 0.0
2014-Oct-17 13:33N 43°07' E 005°56'0 0.0
2014-Oct-17 12:33N 43°07' E 005°56'0 0.0
2014-Oct-17 10:11N 43°07' E 005°56'0 0.0
2014-Oct-17 07:33N 43°07' E 005°56'0 0.0
2014-Oct-17 06:33N 43°07' E 005°56'0 0.0
2014-Oct-17 05:33N 43°07' E 005°56'5 5.2
2014-Oct-17 04:33N 43°03' E 005°59'1412.9
2014-Oct-17 03:27N 42°53' E 006°14'1413.4
2014-Oct-17 02:25N 42°46' E 006°30'1212.9
2014-Oct-17 01:31N 42°40' E 006°44'  

Dump ship's entire track history